sensor_id;sensor_type;location;lat;lon;timestamp;P1;durP1;ratioP1;P2;durP2;ratioP2
20890;SDS011;10605;52.968;8.844;2023-06-10T00:02:10;7.82;;;4.68;;
20890;SDS011;10605;52.968;8.844;2023-06-10T00:04:36;10.57;;;4.90;;
20890;SDS011;10605;52.968;8.844;2023-06-10T00:07:03;9.38;;;5.50;;
20890;SDS011;10605;52.968;8.844;2023-06-10T00:09:33;7.90;;;5.10;;
20890;SDS011;10605;52.968;8.844;2023-06-10T00:12:03;8.57;;;5.13;;
20890;SDS011;10605;52.968;8.844;2023-06-10T00:14:30;8.80;;;4.82;;
20890;SDS011;10605;52.968;8.844;2023-06-10T00:16:55;10.73;;;5.05;;
20890;SDS011;10605;52.968;8.844;2023-06-10T00:19:22;11.00;;;4.95;;
20890;SDS011;10605;52.968;8.844;2023-06-10T00:21:50;6.30;;;4.95;;
20890;SDS011;10605;52.968;8.844;2023-06-10T00:24:17;8.65;;;5.25;;
20890;SDS011;10605;52.968;8.844;2023-06-10T00:26:43;10.77;;;5.63;;
20890;SDS011;10605;52.968;8.844;2023-06-10T00:29:09;7.85;;;4.72;;
20890;SDS011;10605;52.968;8.844;2023-06-10T00:31:35;8.70;;;4.68;;
20890;SDS011;10605;52.968;8.844;2023-06-10T00:34:01;18.00;;;5.97;;
20890;SDS011;10605;52.968;8.844;2023-06-10T00:36:27;6.93;;;5.30;;
20890;SDS011;10605;52.968;8.844;2023-06-10T00:38:53;12.25;;;5.68;;
20890;SDS011;10605;52.968;8.844;2023-06-10T00:41:19;7.88;;;5.45;;
20890;SDS011;10605;52.968;8.844;2023-06-10T00:43:45;12.88;;;5.55;;
20890;SDS011;10605;52.968;8.844;2023-06-10T00:46:11;5.47;;;4.93;;
20890;SDS011;10605;52.968;8.844;2023-06-10T00:48:39;8.98;;;5.43;;
20890;SDS011;10605;52.968;8.844;2023-06-10T00:51:06;10.05;;;4.97;;
20890;SDS011;10605;52.968;8.844;2023-06-10T00:53:34;12.55;;;5.32;;
20890;SDS011;10605;52.968;8.844;2023-06-10T00:56:01;9.70;;;5.25;;
20890;SDS011;10605;52.968;8.844;2023-06-10T00:58:28;12.85;;;6.07;;
20890;SDS011;10605;52.968;8.844;2023-06-10T01:00:54;11.52;;;5.93;;
20890;SDS011;10605;52.968;8.844;2023-06-10T01:03:20;15.82;;;5.97;;
20890;SDS011;10605;52.968;8.844;2023-06-10T01:05:50;13.40;;;6.05;;
20890;SDS011;10605;52.968;8.844;2023-06-10T01:09:10;13.57;;;6.07;;
20890;SDS011;10605;52.968;8.844;2023-06-10T01:11:34;10.65;;;5.95;;
20890;SDS011;10605;52.968;8.844;2023-06-10T01:14:07;16.73;;;5.70;;
20890;SDS011;10605;52.968;8.844;2023-06-10T01:16:35;12.57;;;6.57;;
20890;SDS011;10605;52.968;8.844;2023-06-10T01:19:02;13.27;;;5.97;;
20890;SDS011;10605;52.968;8.844;2023-06-10T01:21:28;11.32;;;5.82;;
20890;SDS011;10605;52.968;8.844;2023-06-10T01:23:56;9.48;;;6.00;;
20890;SDS011;10605;52.968;8.844;2023-06-10T01:26:24;14.65;;;6.13;;
20890;SDS011;10605;52.968;8.844;2023-06-10T01:34:01;17.20;;;6.30;;
20890;SDS011;10605;52.968;8.844;2023-06-10T01:36:28;13.68;;;6.38;;
20890;SDS011;10605;52.968;8.844;2023-06-10T01:38:54;15.45;;;5.80;;
20890;SDS011;10605;52.968;8.844;2023-06-10T01:41:21;12.65;;;6.90;;
20890;SDS011;10605;52.968;8.844;2023-06-10T01:43:48;18.02;;;6.97;;
20890;SDS011;10605;52.968;8.844;2023-06-10T01:46:14;13.43;;;6.60;;
20890;SDS011;10605;52.968;8.844;2023-06-10T01:48:44;9.13;;;6.80;;
20890;SDS011;10605;52.968;8.844;2023-06-10T01:51:10;17.40;;;7.07;;
20890;SDS011;10605;52.968;8.844;2023-06-10T01:53:35;14.38;;;6.75;;
20890;SDS011;10605;52.968;8.844;2023-06-10T01:56:01;14.98;;;6.22;;
20890;SDS011;10605;52.968;8.844;2023-06-10T01:58:27;16.17;;;6.20;;
20890;SDS011;10605;52.968;8.844;2023-06-10T02:00:52;14.95;;;7.28;;
20890;SDS011;10605;52.968;8.844;2023-06-10T02:03:18;13.88;;;6.88;;
20890;SDS011;10605;52.968;8.844;2023-06-10T02:05:44;14.32;;;7.15;;
20890;SDS011;10605;52.968;8.844;2023-06-10T02:08:10;14.88;;;6.35;;
20890;SDS011;10605;52.968;8.844;2023-06-10T02:10:35;12.50;;;6.75;;
20890;SDS011;10605;52.968;8.844;2023-06-10T02:13:01;12.80;;;6.43;;
20890;SDS011;10605;52.968;8.844;2023-06-10T02:15:27;10.65;;;7.50;;
20890;SDS011;10605;52.968;8.844;2023-06-10T02:17:52;18.42;;;7.82;;
20890;SDS011;10605;52.968;8.844;2023-06-10T02:20:19;15.60;;;7.80;;
20890;SDS011;10605;52.968;8.844;2023-06-10T02:22:45;17.83;;;6.88;;
20890;SDS011;10605;52.968;8.844;2023-06-10T02:25:11;14.80;;;6.68;;
20890;SDS011;10605;52.968;8.844;2023-06-10T02:27:37;16.88;;;7.53;;
20890;SDS011;10605;52.968;8.844;2023-06-10T02:30:03;16.70;;;7.68;;
20890;SDS011;10605;52.968;8.844;2023-06-10T02:32:29;13.30;;;6.85;;
20890;SDS011;10605;52.968;8.844;2023-06-10T02:34:55;17.20;;;7.43;;
20890;SDS011;10605;52.968;8.844;2023-06-10T02:37:21;17.27;;;7.35;;
20890;SDS011;10605;52.968;8.844;2023-06-10T02:39:46;15.27;;;6.95;;
20890;SDS011;10605;52.968;8.844;2023-06-10T02:42:12;12.10;;;7.13;;
20890;SDS011;10605;52.968;8.844;2023-06-10T02:44:38;14.45;;;7.05;;
20890;SDS011;10605;52.968;8.844;2023-06-10T02:47:04;17.63;;;8.13;;
20890;SDS011;10605;52.968;8.844;2023-06-10T02:49:30;15.77;;;8.02;;
20890;SDS011;10605;52.968;8.844;2023-06-10T02:51:56;22.38;;;7.53;;
20890;SDS011;10605;52.968;8.844;2023-06-10T02:54:22;12.32;;;7.03;;
20890;SDS011;10605;52.968;8.844;2023-06-10T02:56:48;13.05;;;7.43;;
20890;SDS011;10605;52.968;8.844;2023-06-10T02:59:14;12.88;;;7.68;;
20890;SDS011;10605;52.968;8.844;2023-06-10T03:01:40;11.23;;;7.85;;
20890;SDS011;10605;52.968;8.844;2023-06-10T03:04:06;14.90;;;7.57;;
20890;SDS011;10605;52.968;8.844;2023-06-10T03:06:32;12.02;;;7.50;;
20890;SDS011;10605;52.968;8.844;2023-06-10T03:09:03;15.00;;;7.68;;
20890;SDS011;10605;52.968;8.844;2023-06-10T03:11:29;13.43;;;7.13;;
20890;SDS011;10605;52.968;8.844;2023-06-10T03:13:56;12.93;;;7.53;;
20890;SDS011;10605;52.968;8.844;2023-06-10T03:16:22;14.32;;;7.28;;
20890;SDS011;10605;52.968;8.844;2023-06-10T03:18:50;12.68;;;7.45;;
20890;SDS011;10605;52.968;8.844;2023-06-10T03:21:17;15.82;;;7.82;;
20890;SDS011;10605;52.968;8.844;2023-06-10T03:23:43;13.88;;;7.50;;
20890;SDS011;10605;52.968;8.844;2023-06-10T03:26:08;15.27;;;8.30;;
20890;SDS011;10605;52.968;8.844;2023-06-10T03:28:35;16.70;;;7.50;;
20890;SDS011;10605;52.968;8.844;2023-06-10T03:31:01;11.63;;;7.05;;
20890;SDS011;10605;52.968;8.844;2023-06-10T03:33:27;10.98;;;7.68;;
20890;SDS011;10605;52.968;8.844;2023-06-10T03:35:52;13.05;;;7.43;;
20890;SDS011;10605;52.968;8.844;2023-06-10T03:38:18;12.82;;;7.95;;
20890;SDS011;10605;52.968;8.844;2023-06-10T03:40:44;16.23;;;8.48;;
20890;SDS011;10605;52.968;8.844;2023-06-10T03:43:10;14.93;;;8.57;;
20890;SDS011;10605;52.968;8.844;2023-06-10T03:45:35;16.27;;;9.82;;
20890;SDS011;10605;52.968;8.844;2023-06-10T03:48:01;15.20;;;9.98;;
20890;SDS011;10605;52.968;8.844;2023-06-10T03:50:28;17.95;;;9.57;;
20890;SDS011;10605;52.968;8.844;2023-06-10T03:52:54;13.95;;;10.07;;
20890;SDS011;10605;52.968;8.844;2023-06-10T03:55:20;23.20;;;10.18;;
20890;SDS011;10605;52.968;8.844;2023-06-10T03:57:47;17.50;;;10.38;;
20890;SDS011;10605;52.968;8.844;2023-06-10T04:00:14;22.10;;;11.40;;
20890;SDS011;10605;52.968;8.844;2023-06-10T04:02:40;19.25;;;11.43;;
20890;SDS011;10605;52.968;8.844;2023-06-10T04:05:14;24.13;;;11.07;;
20890;SDS011;10605;52.968;8.844;2023-06-10T04:07:41;16.98;;;11.35;;
20890;SDS011;10605;52.968;8.844;2023-06-10T04:10:08;15.60;;;11.20;;
20890;SDS011;10605;52.968;8.844;2023-06-10T04:12:34;23.42;;;11.35;;
20890;SDS011;10605;52.968;8.844;2023-06-10T04:15:00;21.15;;;10.90;;
20890;SDS011;10605;52.968;8.844;2023-06-10T04:17:26;18.45;;;10.93;;
20890;SDS011;10605;52.968;8.844;2023-06-10T04:19:52;16.80;;;10.52;;
20890;SDS011;10605;52.968;8.844;2023-06-10T04:22:19;16.98;;;10.38;;
20890;SDS011;10605;52.968;8.844;2023-06-10T04:24:45;13.63;;;9.75;;
20890;SDS011;10605;52.968;8.844;2023-06-10T04:27:11;15.98;;;10.15;;
20890;SDS011;10605;52.968;8.844;2023-06-10T04:29:37;14.82;;;10.20;;
20890;SDS011;10605;52.968;8.844;2023-06-10T04:32:02;15.40;;;10.32;;
20890;SDS011;10605;52.968;8.844;2023-06-10T04:34:30;13.40;;;9.35;;
20890;SDS011;10605;52.968;8.844;2023-06-10T04:36:56;11.68;;;9.30;;
20890;SDS011;10605;52.968;8.844;2023-06-10T04:39:22;14.45;;;9.18;;
20890;SDS011;10605;52.968;8.844;2023-06-10T04:41:47;17.00;;;9.02;;
20890;SDS011;10605;52.968;8.844;2023-06-10T04:44:13;14.25;;;9.93;;
20890;SDS011;10605;52.968;8.844;2023-06-10T04:46:38;16.73;;;8.73;;
20890;SDS011;10605;52.968;8.844;2023-06-10T04:49:04;9.45;;;8.48;;
20890;SDS011;10605;52.968;8.844;2023-06-10T04:51:30;10.70;;;7.80;;
20890;SDS011;10605;52.968;8.844;2023-06-10T04:53:57;16.20;;;8.65;;
20890;SDS011;10605;52.968;8.844;2023-06-10T04:56:23;16.40;;;7.88;;
20890;SDS011;10605;52.968;8.844;2023-06-10T04:58:49;11.98;;;8.02;;
20890;SDS011;10605;52.968;8.844;2023-06-10T05:01:15;13.48;;;8.30;;
20890;SDS011;10605;52.968;8.844;2023-06-10T05:03:41;14.05;;;7.68;;
20890;SDS011;10605;52.968;8.844;2023-06-10T05:06:06;12.88;;;7.72;;
20890;SDS011;10605;52.968;8.844;2023-06-10T05:08:33;15.90;;;7.85;;
20890;SDS011;10605;52.968;8.844;2023-06-10T05:10:58;9.45;;;7.47;;
20890;SDS011;10605;52.968;8.844;2023-06-10T05:13:24;13.05;;;7.57;;
20890;SDS011;10605;52.968;8.844;2023-06-10T05:15:50;14.52;;;7.13;;
20890;SDS011;10605;52.968;8.844;2023-06-10T05:18:15;10.43;;;7.28;;
20890;SDS011;10605;52.968;8.844;2023-06-10T05:20:41;8.55;;;7.68;;
20890;SDS011;10605;52.968;8.844;2023-06-10T05:23:07;9.23;;;6.75;;
20890;SDS011;10605;52.968;8.844;2023-06-10T05:25:33;10.98;;;6.40;;
20890;SDS011;10605;52.968;8.844;2023-06-10T05:27:59;8.07;;;6.93;;
20890;SDS011;10605;52.968;8.844;2023-06-10T05:30:24;11.32;;;7.15;;
20890;SDS011;10605;52.968;8.844;2023-06-10T05:32:51;9.95;;;6.65;;
20890;SDS011;10605;52.968;8.844;2023-06-10T05:35:18;11.35;;;6.68;;
20890;SDS011;10605;52.968;8.844;2023-06-10T05:37:44;12.73;;;6.70;;
20890;SDS011;10605;52.968;8.844;2023-06-10T05:40:10;11.52;;;7.38;;
20890;SDS011;10605;52.968;8.844;2023-06-10T05:42:36;13.25;;;6.40;;
20890;SDS011;10605;52.968;8.844;2023-06-10T05:45:02;12.25;;;7.07;;
20890;SDS011;10605;52.968;8.844;2023-06-10T05:47:28;14.07;;;6.72;;
20890;SDS011;10605;52.968;8.844;2023-06-10T05:49:54;10.20;;;7.35;;
20890;SDS011;10605;52.968;8.844;2023-06-10T05:52:20;11.45;;;6.20;;
20890;SDS011;10605;52.968;8.844;2023-06-10T05:54:45;11.10;;;6.85;;
20890;SDS011;10605;52.968;8.844;2023-06-10T05:57:11;13.40;;;6.40;;
20890;SDS011;10605;52.968;8.844;2023-06-10T05:59:37;7.78;;;5.88;;
20890;SDS011;10605;52.968;8.844;2023-06-10T06:02:02;10.38;;;5.65;;
20890;SDS011;10605;52.968;8.844;2023-06-10T06:04:28;11.30;;;6.30;;
20890;SDS011;10605;52.968;8.844;2023-06-10T06:06:54;8.77;;;5.90;;
20890;SDS011;10605;52.968;8.844;2023-06-10T06:09:19;14.88;;;7.03;;
20890;SDS011;10605;52.968;8.844;2023-06-10T06:11:45;13.40;;;6.43;;
20890;SDS011;10605;52.968;8.844;2023-06-10T06:14:11;9.55;;;6.15;;
20890;SDS011;10605;52.968;8.844;2023-06-10T06:16:36;12.88;;;5.55;;
20890;SDS011;10605;52.968;8.844;2023-06-10T06:19:03;7.90;;;6.18;;
20890;SDS011;10605;52.968;8.844;2023-06-10T06:21:28;8.35;;;5.75;;
20890;SDS011;10605;52.968;8.844;2023-06-10T06:23:54;8.38;;;5.78;;
20890;SDS011;10605;52.968;8.844;2023-06-10T06:26:20;12.02;;;6.07;;
20890;SDS011;10605;52.968;8.844;2023-06-10T06:28:45;11.57;;;6.43;;
20890;SDS011;10605;52.968;8.844;2023-06-10T06:31:11;8.13;;;6.72;;
20890;SDS011;10605;52.968;8.844;2023-06-10T06:33:37;9.13;;;5.95;;
20890;SDS011;10605;52.968;8.844;2023-06-10T06:36:02;10.88;;;5.80;;
20890;SDS011;10605;52.968;8.844;2023-06-10T06:38:28;12.15;;;5.75;;
20890;SDS011;10605;52.968;8.844;2023-06-10T06:40:54;6.63;;;5.00;;
20890;SDS011;10605;52.968;8.844;2023-06-10T06:43:19;11.88;;;4.70;;
20890;SDS011;10605;52.968;8.844;2023-06-10T06:45:45;8.65;;;5.00;;
20890;SDS011;10605;52.968;8.844;2023-06-10T06:48:11;9.88;;;4.85;;
20890;SDS011;10605;52.968;8.844;2023-06-10T06:50:37;11.30;;;4.90;;
20890;SDS011;10605;52.968;8.844;2023-06-10T06:53:03;6.55;;;4.75;;
20890;SDS011;10605;52.968;8.844;2023-06-10T06:55:29;7.22;;;5.05;;
20890;SDS011;10605;52.968;8.844;2023-06-10T06:57:55;5.80;;;4.40;;
20890;SDS011;10605;52.968;8.844;2023-06-10T07:00:21;12.45;;;4.78;;
20890;SDS011;10605;52.968;8.844;2023-06-10T07:02:47;6.60;;;4.47;;
20890;SDS011;10605;52.968;8.844;2023-06-10T07:05:13;5.72;;;4.68;;
20890;SDS011;10605;52.968;8.844;2023-06-10T07:07:38;5.65;;;4.50;;
20890;SDS011;10605;52.968;8.844;2023-06-10T07:10:04;6.47;;;4.35;;
20890;SDS011;10605;52.968;8.844;2023-06-10T07:12:30;5.72;;;4.20;;
20890;SDS011;10605;52.968;8.844;2023-06-10T07:14:56;10.77;;;4.78;;
20890;SDS011;10605;52.968;8.844;2023-06-10T07:17:21;6.85;;;3.92;;
20890;SDS011;10605;52.968;8.844;2023-06-10T07:19:47;9.02;;;4.28;;
20890;SDS011;10605;52.968;8.844;2023-06-10T07:22:13;4.53;;;3.70;;
20890;SDS011;10605;52.968;8.844;2023-06-10T07:24:39;7.28;;;3.95;;
20890;SDS011;10605;52.968;8.844;2023-06-10T07:27:05;6.13;;;3.75;;
20890;SDS011;10605;52.968;8.844;2023-06-10T07:29:32;6.03;;;3.40;;
20890;SDS011;10605;52.968;8.844;2023-06-10T07:31:57;6.40;;;3.90;;
20890;SDS011;10605;52.968;8.844;2023-06-10T07:34:23;6.30;;;3.00;;
20890;SDS011;10605;52.968;8.844;2023-06-10T07:36:49;7.90;;;4.40;;
20890;SDS011;10605;52.968;8.844;2023-06-10T07:39:14;5.00;;;3.55;;
20890;SDS011;10605;52.968;8.844;2023-06-10T07:41:40;6.55;;;3.83;;
20890;SDS011;10605;52.968;8.844;2023-06-10T07:44:06;6.25;;;3.60;;
20890;SDS011;10605;52.968;8.844;2023-06-10T07:46:31;4.95;;;3.58;;
20890;SDS011;10605;52.968;8.844;2023-06-10T07:48:57;4.22;;;3.28;;
20890;SDS011;10605;52.968;8.844;2023-06-10T07:51:23;6.38;;;3.63;;
20890;SDS011;10605;52.968;8.844;2023-06-10T07:53:49;7.63;;;4.00;;
20890;SDS011;10605;52.968;8.844;2023-06-10T07:56:15;5.18;;;3.80;;
20890;SDS011;10605;52.968;8.844;2023-06-10T07:58:40;4.43;;;3.22;;
20890;SDS011;10605;52.968;8.844;2023-06-10T08:01:06;5.50;;;3.28;;
20890;SDS011;10605;52.968;8.844;2023-06-10T08:03:32;5.03;;;3.60;;
20890;SDS011;10605;52.968;8.844;2023-06-10T08:05:58;7.90;;;3.92;;
20890;SDS011;10605;52.968;8.844;2023-06-10T08:08:23;4.55;;;3.30;;
20890;SDS011;10605;52.968;8.844;2023-06-10T08:10:49;5.60;;;3.50;;
20890;SDS011;10605;52.968;8.844;2023-06-10T08:13:15;5.97;;;3.22;;
20890;SDS011;10605;52.968;8.844;2023-06-10T08:15:40;10.38;;;3.58;;
20890;SDS011;10605;52.968;8.844;2023-06-10T08:18:06;3.60;;;3.05;;
20890;SDS011;10605;52.968;8.844;2023-06-10T08:20:32;6.28;;;3.38;;
20890;SDS011;10605;52.968;8.844;2023-06-10T08:22:57;5.22;;;3.28;;
20890;SDS011;10605;52.968;8.844;2023-06-10T08:25:23;4.13;;;3.38;;
20890;SDS011;10605;52.968;8.844;2023-06-10T08:27:49;4.30;;;3.53;;
20890;SDS011;10605;52.968;8.844;2023-06-10T08:30:15;6.20;;;3.53;;
20890;SDS011;10605;52.968;8.844;2023-06-10T08:32:41;9.48;;;4.18;;
20890;SDS011;10605;52.968;8.844;2023-06-10T08:35:08;6.22;;;3.42;;
20890;SDS011;10605;52.968;8.844;2023-06-10T08:37:34;6.88;;;4.00;;
20890;SDS011;10605;52.968;8.844;2023-06-10T08:39:59;5.50;;;4.15;;
20890;SDS011;10605;52.968;8.844;2023-06-10T08:43:10;5.70;;;3.20;;
20890;SDS011;10605;52.968;8.844;2023-06-10T08:45:19;4.72;;;3.53;;
20890;SDS011;10605;52.968;8.844;2023-06-10T08:47:46;6.40;;;2.90;;
20890;SDS011;10605;52.968;8.844;2023-06-10T08:50:16;3.75;;;3.35;;
20890;SDS011;10605;52.968;8.844;2023-06-10T08:52:44;9.15;;;3.10;;
20890;SDS011;10605;52.968;8.844;2023-06-10T08:55:14;8.05;;;3.03;;
20890;SDS011;10605;52.968;8.844;2023-06-10T08:57:44;10.38;;;3.35;;
20890;SDS011;10605;52.968;8.844;2023-06-10T09:00:13;3.67;;;3.35;;
20890;SDS011;10605;52.968;8.844;2023-06-10T09:02:39;7.75;;;3.30;;
20890;SDS011;10605;52.968;8.844;2023-06-10T09:05:05;4.22;;;2.92;;
20890;SDS011;10605;52.968;8.844;2023-06-10T09:07:32;5.90;;;2.97;;
20890;SDS011;10605;52.968;8.844;2023-06-10T09:10:01;4.70;;;3.50;;
20890;SDS011;10605;52.968;8.844;2023-06-10T09:12:29;4.93;;;3.58;;
20890;SDS011;10605;52.968;8.844;2023-06-10T09:14:55;7.40;;;3.00;;
20890;SDS011;10605;52.968;8.844;2023-06-10T09:17:21;5.13;;;2.75;;
20890;SDS011;10605;52.968;8.844;2023-06-10T09:19:47;6.95;;;3.40;;
20890;SDS011;10605;52.968;8.844;2023-06-10T09:22:14;4.63;;;2.80;;
20890;SDS011;10605;52.968;8.844;2023-06-10T09:24:40;5.50;;;3.42;;
20890;SDS011;10605;52.968;8.844;2023-06-10T09:27:06;3.40;;;2.72;;
20890;SDS011;10605;52.968;8.844;2023-06-10T09:32:18;6.13;;;2.88;;
20890;SDS011;10605;52.968;8.844;2023-06-10T09:34:45;5.75;;;2.80;;
20890;SDS011;10605;52.968;8.844;2023-06-10T09:37:11;4.72;;;2.80;;
20890;SDS011;10605;52.968;8.844;2023-06-10T09:39:38;8.30;;;2.90;;
20890;SDS011;10605;52.968;8.844;2023-06-10T09:42:25;7.38;;;3.30;;
20890;SDS011;10605;52.968;8.844;2023-06-10T09:44:51;4.38;;;2.30;;
20890;SDS011;10605;52.968;8.844;2023-06-10T09:47:22;3.60;;;2.83;;
20890;SDS011;10605;52.968;8.844;2023-06-10T09:49:49;3.72;;;2.60;;
20890;SDS011;10605;52.968;8.844;2023-06-10T09:52:21;4.65;;;3.00;;
20890;SDS011;10605;52.968;8.844;2023-06-10T09:54:47;5.05;;;2.63;;
20890;SDS011;10605;52.968;8.844;2023-06-10T09:57:13;10.30;;;2.75;;
20890;SDS011;10605;52.968;8.844;2023-06-10T09:59:39;14.45;;;4.75;;
20890;SDS011;10605;52.968;8.844;2023-06-10T10:02:06;7.93;;;4.78;;
20890;SDS011;10605;52.968;8.844;2023-06-10T10:04:31;8.23;;;2.95;;
20890;SDS011;10605;52.968;8.844;2023-06-10T10:07:00;6.85;;;3.17;;
20890;SDS011;10605;52.968;8.844;2023-06-10T10:09:26;6.35;;;2.92;;
20890;SDS011;10605;52.968;8.844;2023-06-10T10:11:52;22.63;;;6.32;;
20890;SDS011;10605;52.968;8.844;2023-06-10T10:14:20;7.95;;;2.95;;
20890;SDS011;10605;52.968;8.844;2023-06-10T10:16:46;8.13;;;2.60;;
20890;SDS011;10605;52.968;8.844;2023-06-10T10:19:16;3.47;;;2.67;;
20890;SDS011;10605;52.968;8.844;2023-06-10T10:21:54;6.22;;;2.88;;
20890;SDS011;10605;52.968;8.844;2023-06-10T10:24:30;6.50;;;2.60;;
20890;SDS011;10605;52.968;8.844;2023-06-10T10:26:59;7.07;;;2.58;;
20890;SDS011;10605;52.968;8.844;2023-06-10T10:29:33;2.65;;;2.10;;
20890;SDS011;10605;52.968;8.844;2023-06-10T10:32:04;5.78;;;2.47;;
20890;SDS011;10605;52.968;8.844;2023-06-10T10:34:53;4.97;;;2.70;;
20890;SDS011;10605;52.968;8.844;2023-06-10T10:37:32;6.80;;;2.55;;
20890;SDS011;10605;52.968;8.844;2023-06-10T10:39:59;2.95;;;2.22;;
20890;SDS011;10605;52.968;8.844;2023-06-10T10:42:25;2.38;;;2.08;;
20890;SDS011;10605;52.968;8.844;2023-06-10T10:44:52;2.95;;;2.20;;
20890;SDS011;10605;52.968;8.844;2023-06-10T10:47:20;4.32;;;2.15;;
20890;SDS011;10605;52.968;8.844;2023-06-10T10:49:47;2.78;;;2.22;;
20890;SDS011;10605;52.968;8.844;2023-06-10T10:52:17;7.25;;;2.28;;
20890;SDS011;10605;52.968;8.844;2023-06-10T10:54:43;5.47;;;2.30;;
20890;SDS011;10605;52.968;8.844;2023-06-10T10:57:16;5.03;;;2.38;;
20890;SDS011;10605;52.968;8.844;2023-06-10T10:59:50;5.57;;;2.22;;
20890;SDS011;10605;52.968;8.844;2023-06-10T11:05:09;7.38;;;2.10;;
20890;SDS011;10605;52.968;8.844;2023-06-10T11:07:39;4.60;;;2.10;;
20890;SDS011;10605;52.968;8.844;2023-06-10T11:10:09;5.05;;;2.58;;
20890;SDS011;10605;52.968;8.844;2023-06-10T11:13:09;2.13;;;1.60;;
20890;SDS011;10605;52.968;8.844;2023-06-10T11:15:47;2.30;;;2.10;;
20890;SDS011;10605;52.968;8.844;2023-06-10T11:20:54;3.30;;;2.13;;
20890;SDS011;10605;52.968;8.844;2023-06-10T11:28:41;5.60;;;2.05;;
20890;SDS011;10605;52.968;8.844;2023-06-10T11:31:30;4.47;;;2.70;;
20890;SDS011;10605;52.968;8.844;2023-06-10T11:34:15;2.30;;;1.80;;
20890;SDS011;10605;52.968;8.844;2023-06-10T11:36:48;3.25;;;2.05;;
20890;SDS011;10605;52.968;8.844;2023-06-10T11:39:14;3.55;;;1.85;;
20890;SDS011;10605;52.968;8.844;2023-06-10T11:41:40;2.53;;;1.75;;
20890;SDS011;10605;52.968;8.844;2023-06-10T11:44:10;2.25;;;2.08;;
20890;SDS011;10605;52.968;8.844;2023-06-10T11:46:37;4.13;;;2.10;;
20890;SDS011;10605;52.968;8.844;2023-06-10T11:49:04;3.88;;;1.95;;
20890;SDS011;10605;52.968;8.844;2023-06-10T11:51:34;5.00;;;2.28;;
20890;SDS011;10605;52.968;8.844;2023-06-10T11:54:02;5.30;;;2.08;;
20890;SDS011;10605;52.968;8.844;2023-06-10T11:56:29;2.47;;;2.03;;
20890;SDS011;10605;52.968;8.844;2023-06-10T12:01:29;2.33;;;2.00;;
20890;SDS011;10605;52.968;8.844;2023-06-10T12:03:59;6.80;;;2.20;;
20890;SDS011;10605;52.968;8.844;2023-06-10T12:06:45;7.15;;;1.98;;
20890;SDS011;10605;52.968;8.844;2023-06-10T12:11:57;2.67;;;1.90;;
20890;SDS011;10605;52.968;8.844;2023-06-10T12:19:55;4.75;;;2.67;;
20890;SDS011;10605;52.968;8.844;2023-06-10T12:22:21;2.50;;;2.30;;
20890;SDS011;10605;52.968;8.844;2023-06-10T12:25:04;3.72;;;2.08;;
20890;SDS011;10605;52.968;8.844;2023-06-10T12:27:32;3.22;;;2.00;;
20890;SDS011;10605;52.968;8.844;2023-06-10T12:29:58;3.70;;;1.92;;
20890;SDS011;10605;52.968;8.844;2023-06-10T12:32:35;2.67;;;2.33;;
20890;SDS011;10605;52.968;8.844;2023-06-10T12:35:06;2.80;;;2.10;;
20890;SDS011;10605;52.968;8.844;2023-06-10T12:37:32;5.85;;;2.25;;
20890;SDS011;10605;52.968;8.844;2023-06-10T12:39:59;2.47;;;2.28;;
20890;SDS011;10605;52.968;8.844;2023-06-10T12:42:27;2.03;;;1.70;;
20890;SDS011;10605;52.968;8.844;2023-06-10T12:44:54;2.53;;;2.10;;
20890;SDS011;10605;52.968;8.844;2023-06-10T12:47:28;6.78;;;2.58;;
20890;SDS011;10605;52.968;8.844;2023-06-10T12:49:57;2.20;;;2.00;;
20890;SDS011;10605;52.968;8.844;2023-06-10T12:52:24;2.88;;;2.08;;
20890;SDS011;10605;52.968;8.844;2023-06-10T12:54:50;3.60;;;2.40;;
20890;SDS011;10605;52.968;8.844;2023-06-10T12:57:16;2.92;;;2.35;;
20890;SDS011;10605;52.968;8.844;2023-06-10T12:59:42;3.67;;;2.25;;
20890;SDS011;10605;52.968;8.844;2023-06-10T13:02:15;2.35;;;1.98;;
20890;SDS011;10605;52.968;8.844;2023-06-10T13:04:41;3.35;;;2.20;;
20890;SDS011;10605;52.968;8.844;2023-06-10T13:07:08;3.67;;;2.40;;
20890;SDS011;10605;52.968;8.844;2023-06-10T13:09:35;2.60;;;2.17;;
20890;SDS011;10605;52.968;8.844;2023-06-10T13:12:01;3.88;;;2.20;;
20890;SDS011;10605;52.968;8.844;2023-06-10T13:14:28;4.65;;;2.53;;
20890;SDS011;10605;52.968;8.844;2023-06-10T13:16:55;3.85;;;2.53;;
20890;SDS011;10605;52.968;8.844;2023-06-10T13:19:21;2.65;;;2.20;;
20890;SDS011;10605;52.968;8.844;2023-06-10T13:21:47;3.40;;;2.40;;
20890;SDS011;10605;52.968;8.844;2023-06-10T13:24:13;4.00;;;2.20;;
20890;SDS011;10605;52.968;8.844;2023-06-10T13:26:38;2.78;;;2.25;;
20890;SDS011;10605;52.968;8.844;2023-06-10T13:29:04;2.47;;;2.28;;
20890;SDS011;10605;52.968;8.844;2023-06-10T13:31:30;2.55;;;2.28;;
20890;SDS011;10605;52.968;8.844;2023-06-10T13:33:57;5.10;;;2.25;;
20890;SDS011;10605;52.968;8.844;2023-06-10T13:36:23;4.25;;;2.65;;
20890;SDS011;10605;52.968;8.844;2023-06-10T13:38:49;2.60;;;2.40;;
20890;SDS011;10605;52.968;8.844;2023-06-10T13:41:15;3.72;;;2.85;;
20890;SDS011;10605;52.968;8.844;2023-06-10T13:43:41;4.38;;;2.90;;
20890;SDS011;10605;52.968;8.844;2023-06-10T13:46:06;2.95;;;2.75;;
20890;SDS011;10605;52.968;8.844;2023-06-10T13:48:32;6.65;;;2.97;;
20890;SDS011;10605;52.968;8.844;2023-06-10T13:50:58;3.35;;;3.05;;
20890;SDS011;10605;52.968;8.844;2023-06-10T13:53:24;6.40;;;3.17;;
20890;SDS011;10605;52.968;8.844;2023-06-10T13:55:50;4.22;;;2.90;;
20890;SDS011;10605;52.968;8.844;2023-06-10T13:58:18;4.22;;;3.15;;
20890;SDS011;10605;52.968;8.844;2023-06-10T14:00:44;5.43;;;3.33;;
20890;SDS011;10605;52.968;8.844;2023-06-10T14:03:09;4.00;;;3.60;;
20890;SDS011;10605;52.968;8.844;2023-06-10T14:05:35;3.50;;;3.20;;
20890;SDS011;10605;52.968;8.844;2023-06-10T14:08:01;3.67;;;3.38;;
20890;SDS011;10605;52.968;8.844;2023-06-10T14:10:26;7.43;;;3.35;;
20890;SDS011;10605;52.968;8.844;2023-06-10T14:12:52;4.63;;;3.53;;
20890;SDS011;10605;52.968;8.844;2023-06-10T14:15:18;3.60;;;3.30;;
20890;SDS011;10605;52.968;8.844;2023-06-10T14:17:44;5.32;;;3.83;;
20890;SDS011;10605;52.968;8.844;2023-06-10T14:20:10;5.22;;;3.60;;
20890;SDS011;10605;52.968;8.844;2023-06-10T14:22:36;3.83;;;3.53;;
20890;SDS011;10605;52.968;8.844;2023-06-10T14:25:01;4.15;;;3.40;;
20890;SDS011;10605;52.968;8.844;2023-06-10T14:27:27;6.03;;;4.03;;
20890;SDS011;10605;52.968;8.844;2023-06-10T14:29:53;3.90;;;3.60;;
20890;SDS011;10605;52.968;8.844;2023-06-10T14:32:19;4.20;;;3.70;;
20890;SDS011;10605;52.968;8.844;2023-06-10T14:34:44;7.82;;;3.75;;
20890;SDS011;10605;52.968;8.844;2023-06-10T14:37:11;4.15;;;3.58;;
20890;SDS011;10605;52.968;8.844;2023-06-10T14:39:37;7.78;;;4.22;;
20890;SDS011;10605;52.968;8.844;2023-06-10T14:42:03;5.70;;;4.32;;
20890;SDS011;10605;52.968;8.844;2023-06-10T14:44:29;6.15;;;4.13;;
20890;SDS011;10605;52.968;8.844;2023-06-10T14:46:54;6.85;;;3.92;;
20890;SDS011;10605;52.968;8.844;2023-06-10T14:49:20;6.22;;;3.92;;
20890;SDS011;10605;52.968;8.844;2023-06-10T14:51:46;4.93;;;4.22;;
20890;SDS011;10605;52.968;8.844;2023-06-10T14:54:14;8.25;;;4.70;;
20890;SDS011;10605;52.968;8.844;2023-06-10T14:56:40;6.38;;;3.85;;
20890;SDS011;10605;52.968;8.844;2023-06-10T14:59:06;5.07;;;4.43;;
20890;SDS011;10605;52.968;8.844;2023-06-10T15:01:32;10.05;;;4.85;;
20890;SDS011;10605;52.968;8.844;2023-06-10T15:03:58;8.93;;;4.60;;
20890;SDS011;10605;52.968;8.844;2023-06-10T15:06:23;6.18;;;4.10;;
20890;SDS011;10605;52.968;8.844;2023-06-10T15:08:49;7.07;;;4.32;;
20890;SDS011;10605;52.968;8.844;2023-06-10T15:11:16;6.30;;;3.85;;
20890;SDS011;10605;52.968;8.844;2023-06-10T15:13:42;8.98;;;4.13;;